Time;durP1;ratioP1;P1;durP2;ratioP2;P2;SDS_P1;SDS_P2;PMS_P1;PMS_P2;Temp;Humidity;BMP_temperature;BMP_pressure;BME280_temperature;BME280_humidity;BME280_pressure;Samples;Min_cycle;Max_cycle;Signal;HPM_P1;HPM_P2
2021/10/04 00:01:17;;;;;;;12.77;7.40;;;;;;;20.33;nan;100428.72;5094644;28;20194;-67
2021/10/04 00:03:43;;;;;;;10.63;7.00;;;;;;;20.36;nan;100444.69;5094590;28;20268;-66
2021/10/04 00:06:09;;;;;;;9.90;7.47;;;;;;;20.53;nan;100461.00;5093420;28;20174;-67
2021/10/04 00:08:34;;;;;;;9.00;6.63;;;;;;;20.80;nan;100476.31;5094010;28;20186;-67
2021/10/04 00:11:00;;;;;;;13.93;7.37;;;;;;;20.90;nan;100476.25;5094820;28;20311;-66
2021/10/04 00:13:25;;;;;;;11.53;7.67;;;;;;;21.15;nan;100493.56;5093810;28;20171;-67
2021/10/04 00:15:51;;;;;;;9.93;7.40;;;;;;;21.17;nan;100505.13;5092509;28;20193;-67
2021/10/04 00:18:16;;;;;;;11.90;8.03;;;;;;;20.73;nan;100504.22;5094359;28;20623;-67
2021/10/04 00:20:42;;;;;;;9.93;7.40;;;;;;;20.73;nan;100515.91;5092630;28;20529;-67
2021/10/04 00:23:08;;;;;;;10.07;7.63;;;;;;;20.66;nan;100516.69;5093700;28;20262;-66
2021/10/04 00:25:33;;;;;;;13.93;8.37;;;;;;;20.42;nan;100515.41;5094695;28;20525;-67
2021/10/04 00:27:59;;;;;;;13.57;7.77;;;;;;;20.38;nan;100510.41;5093304;28;20178;-66
2021/10/04 00:30:24;;;;;;;9.20;7.33;;;;;;;20.39;nan;100504.84;5093893;28;20214;-67
2021/10/04 00:32:51;;;;;;;11.10;7.23;;;;;;;20.43;nan;100505.41;5093921;28;20181;-67
2021/10/04 00:35:18;;;;;;;8.93;6.73;;;;;;;20.51;nan;100519.09;5092639;28;20174;-67
2021/10/04 00:37:44;;;;;;;11.30;7.67;;;;;;;20.44;nan;100528.81;5093517;28;20261;-67
2021/10/04 00:40:13;;;;;;;13.77;7.57;;;;;;;20.63;nan;100539.56;5094369;28;20174;-67
2021/10/04 00:42:39;;;;;;;10.67;6.53;;;;;;;20.38;nan;100535.66;5092311;28;20200;-67
2021/10/04 00:45:05;;;;;;;5.93;5.07;;;;;;;20.09;nan;100526.84;5092525;28;20705;-67
2021/10/04 00:47:30;;;;;;;5.30;4.30;;;;;;;19.94;nan;100527.31;5094672;28;20193;-66
2021/10/04 00:49:56;;;;;;;5.33;3.90;;;;;;;19.82;nan;100533.94;5093019;28;20564;-67
2021/10/04 00:52:21;;;;;;;3.30;2.90;;;;;;;19.95;nan;100539.00;5093420;28;20544;-66
2021/10/04 00:54:46;;;;;;;1.83;1.57;;;;;;;19.85;nan;100543.63;5093771;28;20319;-67
2021/10/04 00:57:12;;;;;;;1.57;1.30;;;;;;;19.77;nan;100540.81;5093829;28;20265;-67
2021/10/04 00:59:37;;;;;;;1.30;1.20;;;;;;;19.93;nan;100541.88;5093388;28;20177;-66
2021/10/04 01:02:03;;;;;;;2.23;1.23;;;;;;;20.00;nan;100544.84;5091674;28;20240;-66
2021/10/04 01:04:28;;;;;;;1.67;1.20;;;;;;;19.70;nan;100553.19;5093016;28;20199;-66
2021/10/04 01:06:54;;;;;;;3.47;1.20;;;;;;;19.70;nan;100545.06;5093362;28;20698;-67
2021/10/04 01:09:20;;;;;;;1.63;1.17;;;;;;;19.58;nan;100555.22;5091664;28;20198;-67
2021/10/04 01:11:45;;;;;;;1.30;1.20;;;;;;;19.56;nan;100549.09;5091526;28;20698;-67
2021/10/04 01:14:11;;;;;;;1.40;1.30;;;;;;;19.70;nan;100547.78;5092116;28;20182;-67
2021/10/04 01:16:36;;;;;;;1.37;1.20;;;;;;;19.92;nan;100560.97;5093061;28;20182;-67
2021/10/04 01:19:02;;;;;;;1.50;1.20;;;;;;;19.84;nan;100552.75;5091806;28;20677;-67
2021/10/04 01:21:27;;;;;;;1.50;1.30;;;;;;;19.99;nan;100564.78;5093227;28;20197;-67
2021/10/04 01:23:52;;;;;;;1.20;1.10;;;;;;;19.99;nan;100565.66;5092979;28;20632;-66
2021/10/04 01:26:18;;;;;;;2.17;1.10;;;;;;;19.93;nan;100568.97;5092780;28;20177;-66
2021/10/04 01:28:43;;;;;;;2.90;1.30;;;;;;;19.87;nan;100564.13;5092611;28;20179;-66
2021/10/04 01:31:09;;;;;;;2.20;1.20;;;;;;;19.65;nan;100559.91;5092803;28;20244;-68
2021/10/04 01:33:34;;;;;;;1.57;1.47;;;;;;;19.60;nan;100567.63;5074595;28;20204;-66
2021/10/04 01:35:59;;;;;;;1.20;1.10;;;;;;;19.67;nan;100568.72;5092703;28;20201;-66
2021/10/04 01:38:25;;;;;;;2.00;1.20;;;;;;;19.53;nan;100565.63;5092963;28;20174;-66
2021/10/04 01:40:50;;;;;;;1.60;0.93;;;;;;;19.49;nan;100564.19;5092713;28;20235;-66
2021/10/04 01:43:15;;;;;;;1.10;1.00;;;;;;;19.44;nan;100556.50;5091570;28;20215;-66
2021/10/04 01:45:41;;;;;;;1.20;1.10;;;;;;;19.33;nan;100571.06;5092924;28;20212;-66
2021/10/04 01:48:07;;;;;;;1.50;1.33;;;;;;;19.30;nan;100571.31;5091827;28;20189;-66
2021/10/04 01:50:35;;;;;;;1.10;1.00;;;;;;;19.29;nan;100585.00;5092797;28;20206;-66
2021/10/04 01:53:00;;;;;;;1.03;1.00;;;;;;;19.18;nan;100577.88;5091423;28;20178;-66
2021/10/04 01:55:26;;;;;;;1.40;1.30;;;;;;;19.25;nan;100591.69;5092762;28;20180;-66
2021/10/04 01:57:51;;;;;;;1.50;1.30;;;;;;;19.42;nan;100604.50;5092650;28;20248;-66
2021/10/04 02:00:19;;;;;;;1.47;1.37;;;;;;;19.59;nan;100603.81;5091603;28;20190;-67
2021/10/04 02:02:48;;;;;;;1.30;1.20;;;;;;;19.53;nan;100609.78;5093090;28;20171;-66
2021/10/04 02:05:14;;;;;;;1.60;1.30;;;;;;;19.59;nan;100603.81;5092967;28;20555;-66
2021/10/04 02:07:40;;;;;;;1.77;0.90;;;;;;;18.80;nan;100611.16;5092531;28;20212;-67
2021/10/04 02:10:11;;;;;;;1.50;1.10;;;;;;;19.40;nan;100614.63;5090924;28;20221;-67
2021/10/04 02:12:37;;;;;;;0.80;0.80;;;;;;;18.61;nan;100608.38;5092387;28;20633;-66
2021/10/04 02:15:03;;;;;;;0.50;0.50;;;;;;;18.42;nan;100612.72;5074322;28;20208;-66
2021/10/04 02:17:31;;;;;;;1.20;0.73;;;;;;;18.41;nan;100615.56;5092462;28;20645;-66
2021/10/04 02:19:56;;;;;;;2.20;0.90;;;;;;;18.98;nan;100620.31;5092464;28;20167;-66
2021/10/04 02:22:22;;;;;;;1.00;0.73;;;;;;;18.95;nan;100620.56;5092687;28;20643;-67
2021/10/04 02:24:47;;;;;;;1.23;0.57;;;;;;;19.09;nan;100616.59;5092726;28;20177;-67
2021/10/04 02:27:12;;;;;;;0.40;0.40;;;;;;;18.96;nan;100627.72;5090988;28;20197;-66
2021/10/04 02:29:38;;;;;;;0.50;0.50;;;;;;;18.18;nan;100625.69;5094377;28;20656;-66
2021/10/04 02:32:03;;;;;;;0.43;0.43;;;;;;;18.42;nan;100641.59;5095970;28;20198;-66
2021/10/04 02:34:29;;;;;;;0.50;0.50;;;;;;;18.09;nan;100632.75;5095846;28;20214;-67
2021/10/04 02:36:54;;;;;;;0.63;0.50;;;;;;;18.28;nan;100633.84;5094720;28;20211;-67
2021/10/04 02:39:19;;;;;;;0.40;0.40;;;;;;;18.53;nan;100637.91;5094575;28;20177;-67
2021/10/04 02:41:44;;;;;;;0.40;0.40;;;;;;;18.51;nan;100653.41;5095732;28;20194;-67
2021/10/04 02:44:10;;;;;;;0.40;0.40;;;;;;;18.30;nan;100646.22;5094353;28;20205;-67
2021/10/04 02:46:35;;;;;;;0.30;0.30;;;;;;;18.00;nan;100641.66;5096053;28;20227;-67
2021/10/04 02:49:00;;;;;;;0.40;0.40;;;;;;;18.18;nan;100651.84;5095771;28;20216;-67
2021/10/04 02:51:26;;;;;;;0.30;0.30;;;;;;;18.36;nan;100661.03;5095571;28;20198;-67
2021/10/04 02:53:54;;;;;;;0.60;0.30;;;;;;;18.58;nan;100670.78;5095765;28;20178;-67
2021/10/04 02:56:20;;;;;;;0.20;0.20;;;;;;;18.54;nan;100681.03;5094340;28;20174;-67
2021/10/04 02:58:45;;;;;;;0.67;0.40;;;;;;;18.56;nan;100689.00;5096454;28;20208;-67
2021/10/04 03:01:11;;;;;;;0.47;0.40;;;;;;;18.58;nan;100692.41;5097034;28;20186;-66
2021/10/04 03:03:36;;;;;;;0.20;0.20;;;;;;;18.51;nan;100696.66;5097104;28;20639;-67
2021/10/04 03:06:01;;;;;;;0.20;0.20;;;;;;;18.52;nan;100693.81;5095537;28;20182;-67
2021/10/04 03:08:27;;;;;;;0.23;0.23;;;;;;;18.46;nan;100696.22;5095804;28;20659;-67
2021/10/04 03:10:52;;;;;;;0.57;0.57;;;;;;;18.39;nan;100704.84;5110951;22;20227;-73
2021/10/04 03:13:17;;;;;;;0.73;0.47;;;;;;;18.26;nan;100706.06;5053600;28;20194;-74
2021/10/04 03:15:43;;;;;;;0.37;0.30;;;;;;;18.17;nan;100718.50;5053724;28;20187;-73
2021/10/04 03:18:10;;;;;;;0.40;0.33;;;;;;;18.07;nan;100720.31;5054922;28;20557;-73
2021/10/04 03:20:36;;;;;;;0.93;0.30;;;;;;;17.84;nan;100724.09;5055144;28;20183;-74
2021/10/04 03:23:01;;;;;;;0.33;0.30;;;;;;;17.63;nan;100732.16;5054896;28;20197;-74
2021/10/04 03:25:27;;;;;;;0.40;0.30;;;;;;;17.59;nan;100736.09;5054541;28;20537;-74
2021/10/04 03:27:52;;;;;;;0.30;0.30;;;;;;;17.52;nan;100732.19;5054652;28;20697;-74
2021/10/04 03:30:18;;;;;;;0.40;0.40;;;;;;;17.54;nan;100741.88;5053186;28;20246;-74
2021/10/04 03:32:43;;;;;;;0.40;0.30;;;;;;;17.29;nan;100747.56;5053002;28;20210;-73
2021/10/04 03:35:09;;;;;;;0.77;0.40;;;;;;;17.40;nan;100753.78;5053112;28;20541;-75
2021/10/04 03:37:35;;;;;;;0.33;0.30;;;;;;;17.07;nan;100752.00;5069917;28;20629;-74
2021/10/04 03:40:01;;;;;;;0.37;0.30;;;;;;;16.98;nan;100762.69;5052557;28;20179;-73
2021/10/04 03:42:26;;;;;;;1.90;0.40;;;;;;;16.81;nan;100762.22;5052630;28;20241;-73
2021/10/04 03:44:51;;;;;;;1.30;0.70;;;;;;;16.67;nan;100765.13;5052875;28;20183;-74
2021/10/04 03:47:17;;;;;;;0.73;0.40;;;;;;;16.66;nan;100776.03;5069381;28;20237;-73
2021/10/04 03:49:43;;;;;;;1.03;0.30;;;;;;;16.48;nan;100771.09;5053145;28;20191;-73
2021/10/04 03:52:08;;;;;;;0.20;0.20;;;;;;;16.48;nan;100779.19;5052714;28;20279;-73
2021/10/04 03:54:33;;;;;;;0.77;0.30;;;;;;;16.51;nan;100776.25;5052822;28;20210;-74
2021/10/04 03:56:59;;;;;;;0.47;0.30;;;;;;;16.49;nan;100775.53;5052811;28;20172;-74
2021/10/04 03:59:24;;;;;;;1.70;0.80;;;;;;;16.40;nan;100768.16;5052701;28;20179;-74
2021/10/04 04:01:49;;;;;;;1.10;0.50;;;;;;;16.49;nan;100771.97;5054054;28;20688;-74
2021/10/04 04:04:14;;;;;;;1.73;0.57;;;;;;;16.48;nan;100770.25;5054466;28;20172;-74
2021/10/04 04:06:41;;;;;;;1.47;0.30;;;;;;;16.51;nan;100789.72;5054234;28;20577;-73
2021/10/04 04:09:07;;;;;;;0.97;0.40;;;;;;;16.39;nan;100788.00;5054144;28;20191;-73
2021/10/04 04:11:32;;;;;;;2.27;0.53;;;;;;;16.46;nan;100791.91;5053642;28;20222;-74
2021/10/04 04:13:57;;;;;;;1.20;0.40;;;;;;;16.43;nan;100794.00;5053712;28;20640;-74
2021/10/04 04:16:22;;;;;;;1.60;0.50;;;;;;;16.53;nan;100792.28;5052446;28;20168;-74
2021/10/04 04:18:48;;;;;;;1.03;0.43;;;;;;;16.46;nan;100789.22;5053659;28;20184;-74
2021/10/04 04:21:13;;;;;;;0.90;0.40;;;;;;;16.65;nan;100799.41;5052127;28;20241;-74
2021/10/04 04:23:38;;;;;;;0.80;0.40;;;;;;;16.79;nan;100818.09;5053488;28;20172;-73
2021/10/04 04:26:04;;;;;;;0.53;0.40;;;;;;;16.90;nan;100816.38;5068695;28;20171;-74
2021/10/04 04:28:29;;;;;;;0.63;0.37;;;;;;;17.06;nan;100804.22;5051924;28;20179;-74
2021/10/04 04:30:54;;;;;;;0.60;0.30;;;;;;;17.10;nan;100816.50;5068325;28;20199;-74
2021/10/04 04:33:20;;;;;;;1.00;0.50;;;;;;;17.17;nan;100817.72;5052676;28;20234;-74
2021/10/04 04:35:45;;;;;;;0.47;0.30;;;;;;;17.23;nan;100820.91;5052182;28;20573;-74
2021/10/04 04:38:10;;;;;;;1.77;0.60;;;;;;;17.26;nan;100824.22;5052208;28;20179;-73
2021/10/04 04:40:36;;;;;;;0.60;0.30;;;;;;;17.38;nan;100825.03;5035527;28;20653;-73
2021/10/04 04:43:01;;;;;;;0.40;0.37;;;;;;;17.37;nan;100828.72;5053278;28;20176;-73
2021/10/04 04:45:26;;;;;;;0.80;0.47;;;;;;;17.40;nan;100844.66;5052199;28;20175;-73
2021/10/04 04:47:52;;;;;;;0.57;0.40;;;;;;;17.42;nan;100842.69;5052011;28;20175;-73
2021/10/04 04:50:18;;;;;;;0.53;0.43;;;;;;;17.44;nan;100844.28;5052011;28;20203;-73
2021/10/04 04:52:43;;;;;;;0.40;0.40;;;;;;;17.30;nan;100843.69;5051720;28;20206;-75
2021/10/04 04:55:09;;;;;;;0.80;0.43;;;;;;;17.37;nan;100851.16;5052375;28;20186;-75
2021/10/04 04:57:34;;;;;;;0.77;0.40;;;;;;;17.37;nan;100856.56;5051963;28;20313;-75
2021/10/04 05:00:00;;;;;;;0.57;0.40;;;;;;;17.41;nan;100854.47;5052133;28;20186;-75
2021/10/04 05:02:25;;;;;;;0.87;0.50;;;;;;;17.41;nan;100851.78;5053995;28;20200;-74
2021/10/04 05:04:51;;;;;;;1.03;0.40;;;;;;;17.32;nan;100847.13;5053558;28;20269;-72
2021/10/04 05:07:16;;;;;;;1.53;0.53;;;;;;;17.34;nan;100855.97;5051918;28;20645;-75
2021/10/04 05:09:41;;;;;;;1.20;0.53;;;;;;;17.44;nan;100851.53;5052859;28;20203;-73
2021/10/04 05:12:07;;;;;;;0.93;0.47;;;;;;;17.42;nan;100865.13;5035124;28;20242;-74
2021/10/04 05:14:32;;;;;;;0.93;0.50;;;;;;;17.52;nan;100862.56;5053220;28;20211;-75
2021/10/04 05:16:57;;;;;;;1.60;0.60;;;;;;;17.53;nan;100863.44;5053144;28;20255;-74
2021/10/04 05:19:23;;;;;;;2.23;0.63;;;;;;;17.34;nan;100859.50;5052993;28;20172;-73
2021/10/04 05:21:48;;;;;;;0.60;0.40;;;;;;;17.46;nan;100860.34;5051592;28;20198;-75
2021/10/04 05:24:13;;;;;;;2.40;0.30;;;;;;;17.41;nan;100863.41;5053218;28;20289;-74
2021/10/04 05:26:40;;;;;;;1.70;0.70;;;;;;;17.47;nan;100870.19;5053095;28;20229;-74
2021/10/04 05:29:05;;;;;;;2.00;0.60;;;;;;;17.49;nan;100866.38;5051349;28;20196;-74
2021/10/04 05:31:30;;;;;;;2.67;0.60;;;;;;;17.41;nan;100868.81;5051398;28;20711;-73
2021/10/04 05:33:55;;;;;;;1.27;0.50;;;;;;;17.39;nan;100867.22;5053323;28;20172;-73
2021/10/04 05:36:21;;;;;;;1.40;0.60;;;;;;;17.43;nan;100874.09;5052691;28;20183;-73
2021/10/04 05:38:46;;;;;;;3.00;0.50;;;;;;;17.33;nan;100876.69;5051997;28;20186;-74
2021/10/04 05:41:13;;;;;;;1.80;0.50;;;;;;;17.40;nan;100883.28;5052747;28;20685;-72
2021/10/04 05:43:38;;;;;;;0.40;0.40;;;;;;;17.33;nan;100887.47;5052869;28;20255;-74
2021/10/04 05:46:04;;;;;;;0.67;0.60;;;;;;;17.29;nan;100877.06;5051935;28;20182;-73
2021/10/04 05:48:29;;;;;;;1.47;0.63;;;;;;;17.29;nan;100882.44;5051539;28;20171;-74
2021/10/04 05:50:55;;;;;;;0.90;0.50;;;;;;;17.33;nan;100886.63;5052717;28;20210;-75
2021/10/04 05:53:20;;;;;;;1.00;0.53;;;;;;;17.45;nan;100889.16;5051263;28;20656;-74
2021/10/04 05:55:46;;;;;;;0.63;0.50;;;;;;;17.46;nan;100888.19;5051766;28;20176;-74
2021/10/04 05:58:11;;;;;;;0.87;0.60;;;;;;;17.37;nan;100883.53;5051285;28;20641;-74
2021/10/04 06:00:37;;;;;;;3.87;0.60;;;;;;;17.30;nan;100885.03;5052654;28;20230;-73
2021/10/04 06:03:02;;;;;;;3.87;1.03;;;;;;;17.28;nan;100891.53;5051318;28;20179;-74
2021/10/04 06:05:27;;;;;;;1.43;0.73;;;;;;;17.35;nan;100895.44;5071443;28;20175;-75
2021/10/04 06:07:53;;;;;;;1.67;0.70;;;;;;;17.36;nan;100892.63;5055022;28;20175;-74
2021/10/04 06:10:18;;;;;;;2.40;0.67;;;;;;;17.31;nan;100899.38;5071347;28;20569;-74
2021/10/04 06:12:43;;;;;;;0.67;0.60;;;;;;;17.30;nan;100906.59;5054449;28;20250;-72
2021/10/04 06:15:10;;;;;;;3.50;0.80;;;;;;;17.37;nan;100909.66;5054823;28;20186;-75
2021/10/04 06:17:36;;;;;;;1.00;0.70;;;;;;;17.24;nan;100919.72;5054684;28;20176;-74
2021/10/04 06:20:05;;;;;;;2.13;0.60;;;;;;;17.35;nan;100934.06;5054749;28;20171;-74
2021/10/04 06:22:30;;;;;;;2.47;0.50;;;;;;;17.25;nan;100934.91;5054727;28;20673;-74
2021/10/04 06:24:56;;;;;;;2.73;0.77;;;;;;;17.37;nan;100940.19;5056494;28;20225;-75
2021/10/04 06:27:21;;;;;;;0.80;0.53;;;;;;;17.38;nan;100946.44;5060258;28;20180;-73
2021/10/04 06:29:46;;;;;;;2.33;0.60;;;;;;;17.36;nan;100945.72;5059699;28;20196;-73
2021/10/04 06:32:12;;;;;;;2.20;0.50;;;;;;;17.45;nan;100950.38;5054571;28;20325;-73
2021/10/04 06:34:37;;;;;;;1.77;0.70;;;;;;;17.46;nan;100955.63;5054573;28;20551;-73
2021/10/04 06:37:03;;;;;;;1.70;0.60;;;;;;;17.63;nan;100962.41;5055971;28;20180;-74
2021/10/04 06:39:28;;;;;;;1.13;0.50;;;;;;;17.67;nan;100963.91;5056539;28;20178;-74
2021/10/04 06:41:53;;;;;;;1.90;0.60;;;;;;;17.73;nan;100976.03;5060675;28;20200;-74
2021/10/04 06:44:19;;;;;;;1.77;0.90;;;;;;;17.66;nan;100969.41;5055795;28;20175;-74
2021/10/04 06:46:45;;;;;;;0.90;0.60;;;;;;;17.58;nan;100972.72;5055911;28;20183;-74
2021/10/04 06:49:10;;;;;;;2.40;0.60;;;;;;;17.54;nan;100965.84;5055181;28;20195;-73
2021/10/04 06:51:35;;;;;;;1.83;0.60;;;;;;;17.55;nan;100972.97;5056173;28;20553;-74
2021/10/04 06:54:01;;;;;;;3.30;1.03;;;;;;;17.62;nan;100966.09;5056308;28;20194;-74
2021/10/04 06:56:27;;;;;;;1.13;0.60;;;;;;;17.67;nan;100963.91;5056773;28;20538;-74
2021/10/04 06:58:52;;;;;;;1.67;0.70;;;;;;;17.69;nan;100958.38;5055578;28;20254;-74
2021/10/04 07:01:18;;;;;;;2.00;0.60;;;;;;;17.71;nan;100967.22;5071262;28;20195;-73
2021/10/04 07:03:43;;;;;;;5.97;1.00;;;;;;;17.89;nan;100973.84;5055569;28;20175;-73
2021/10/04 07:06:08;;;;;;;4.83;0.97;;;;;;;17.93;nan;100969.03;5054305;28;20175;-74
2021/10/04 07:08:34;;;;;;;2.40;1.00;;;;;;;18.00;nan;100983.75;5055292;28;20581;-74
2021/10/04 07:11:00;;;;;;;3.03;0.80;;;;;;;17.82;nan;100975.28;5054060;28;20239;-74
2021/10/04 07:13:25;;;;;;;1.13;0.70;;;;;;;18.05;nan;100984.25;5054597;28;20187;-73
2021/10/04 07:15:50;;;;;;;2.83;0.77;;;;;;;18.00;nan;100979.22;5055215;28;20210;-74
2021/10/04 07:18:16;;;;;;;3.33;0.60;;;;;;;18.21;nan;100990.13;5055382;28;20538;-75
2021/10/04 07:20:42;;;;;;;1.57;0.73;;;;;;;18.02;nan;100973.69;5054996;28;20191;-75
2021/10/04 07:23:07;;;;;;;3.63;0.70;;;;;;;17.95;nan;100981.44;5055357;28;20597;-73
2021/10/04 07:25:33;;;;;;;1.90;0.57;;;;;;;17.84;nan;100984.16;5054013;28;20229;-74
2021/10/04 07:28:00;;;;;;;0.60;0.60;;;;;;;18.28;nan;100998.56;5054144;28;20183;-73
2021/10/04 07:30:25;;;;;;;7.63;0.80;;;;;;;18.35;nan;100995.22;5054554;28;20183;-74
2021/10/04 07:32:51;;;;;;;2.27;1.00;;;;;;;18.47;nan;101004.16;5054026;28;20175;-73
2021/10/04 07:35:17;;;;;;;0.90;0.60;;;;;;;18.17;nan;100995.88;5054157;28;20175;-73
2021/10/04 07:37:42;;;;;;;1.50;0.83;;;;;;;18.32;nan;101003.59;5053947;28;20259;-74
2021/10/04 07:40:09;;;;;;;2.73;0.60;;;;;;;18.33;nan;101008.00;5054778;28;20171;-73
2021/10/04 07:42:34;;;;;;;2.27;0.60;;;;;;;18.09;nan;101008.16;5055025;28;20654;-72
2021/10/04 07:45:00;;;;;;;1.73;0.70;;;;;;;18.26;nan;101016.75;5053541;28;20195;-73
2021/10/04 07:47:25;;;;;;;2.57;0.80;;;;;;;18.00;nan;101005.38;5055208;28;20256;-73
2021/10/04 07:49:50;;;;;;;4.30;0.83;;;;;;;18.07;nan;101003.88;5036797;28;20198;-73
2021/10/04 07:52:16;;;;;;;1.10;0.70;;;;;;;17.75;nan;101003.78;5054692;28;20214;-73
2021/10/04 07:54:41;;;;;;;1.37;0.57;;;;;;;18.06;nan;101010.25;5053175;28;20180;-73
2021/10/04 07:57:06;;;;;;;4.43;0.60;;;;;;;18.02;nan;101008.78;5053085;28;20613;-74
2021/10/04 07:59:32;;;;;;;1.60;0.50;;;;;;;18.05;nan;101003.16;5069413;28;20176;-73
2021/10/04 08:01:57;;;;;;;0.63;0.60;;;;;;;17.84;nan;101000.34;5054052;28;20202;-73
2021/10/04 08:04:23;;;;;;;0.70;0.50;;;;;;;18.12;nan;101010.63;5052963;28;20210;-74
2021/10/04 08:06:48;;;;;;;1.33;0.70;;;;;;;18.51;nan;101021.81;5069365;28;20198;-73
2021/10/04 08:09:15;;;;;;;1.53;0.60;;;;;;;18.43;nan;101030.56;5052807;28;20219;-74
2021/10/04 08:11:40;;;;;;;2.30;0.80;;;;;;;17.70;nan;101027.56;5069321;28;20688;-74
2021/10/04 08:14:06;;;;;;;1.63;0.70;;;;;;;18.11;nan;101032.34;5054048;28;20269;-73
2021/10/04 08:16:31;;;;;;;3.43;1.50;;;;;;;17.82;nan;101034.69;5054379;28;20233;-73
2021/10/04 08:18:56;;;;;;;2.43;1.67;;;;;;;17.89;nan;101043.19;5052723;28;20229;-72
2021/10/04 08:21:22;;;;;;;2.17;0.87;;;;;;;17.84;nan;101045.38;5052623;28;20191;-75
2021/10/04 08:23:48;;;;;;;3.73;1.47;;;;;;;18.27;nan;101040.06;5052153;28;20193;-73
2021/10/04 08:26:15;;;;;;;1.80;0.90;;;;;;;18.09;nan;101034.31;5052935;28;20182;-73
2021/10/04 08:28:40;;;;;;;1.40;1.13;;;;;;;18.42;nan;101042.38;5052233;28;20183;-73
2021/10/04 08:31:05;;;;;;;1.70;0.90;;;;;;;17.79;nan;101030.41;5052331;28;20299;-73
2021/10/04 08:33:32;;;;;;;2.03;1.03;;;;;;;18.43;nan;101046.78;5053363;28;20183;-74
2021/10/04 08:35:58;;;;;;;4.67;0.83;;;;;;;17.81;nan;101044.63;5052021;28;20270;-73
2021/10/04 08:38:25;;;;;;;3.10;1.17;;;;;;;18.05;nan;101038.25;5052124;28;20179;-73
2021/10/04 08:40:50;;;;;;;4.27;1.30;;;;;;;18.21;nan;101045.97;5052170;28;20234;-73
2021/10/04 08:43:15;;;;;;;10.23;1.23;;;;;;;18.25;nan;101040.22;5051967;28;20577;-74
2021/10/04 08:45:44;;;;;;;3.90;1.50;;;;;;;18.43;nan;101051.34;5052390;28;20183;-73
2021/10/04 08:48:10;;;;;;;4.30;1.10;;;;;;;18.18;nan;101044.38;5052401;28;20221;-73
2021/10/04 08:50:35;;;;;;;2.13;1.00;;;;;;;18.13;nan;101039.34;5051617;28;20589;-73
2021/10/04 08:53:02;;;;;;;3.37;1.10;;;;;;;18.29;nan;101059.72;5053397;28;20187;-73
2021/10/04 08:55:27;;;;;;;3.43;1.07;;;;;;;18.26;nan;101054.56;5051895;28;20179;-74
2021/10/04 08:57:53;;;;;;;4.80;1.30;;;;;;;18.14;nan;101056.41;5051960;28;20171;-75
2021/10/04 09:00:18;;;;;;;3.63;2.03;;;;;;;18.17;nan;101060.69;5035224;28;20198;-75
2021/10/04 09:02:45;;;;;;;1.80;1.30;;;;;;;18.21;nan;101068.47;5051752;28;20192;-73
2021/10/04 09:05:13;;;;;;;2.70;0.90;;;;;;;17.80;nan;101077.16;5052232;28;20195;-73
2021/10/04 09:07:48;;;;;;;5.37;1.03;;;;;;;17.91;nan;101087.13;5051804;28;20175;-73
2021/10/04 09:10:18;;;;;;;2.70;0.90;;;;;;;18.00;nan;101091.78;5051712;28;20195;-74
2021/10/04 09:12:55;;;;;;;1.63;0.90;;;;;;;18.06;nan;101100.25;5093599;23;20228;-66
2021/10/04 09:15:24;;;;;;;5.10;0.97;;;;;;;18.08;nan;101100.13;5073198;28;20170;-66
2021/10/04 09:17:51;;;;;;;6.50;1.57;;;;;;;18.12;nan;101115.09;5073192;28;20224;-66
2021/10/04 09:20:17;;;;;;;1.90;1.00;;;;;;;18.09;nan;101110.81;5073317;28;20195;-66
2021/10/04 09:22:42;;;;;;;4.67;1.30;;;;;;;18.22;nan;101112.53;5073228;28;20276;-66
2021/10/04 09:25:08;;;;;;;3.07;1.30;;;;;;;18.08;nan;101106.38;5055552;28;20170;-66
2021/10/04 09:27:38;;;;;;;3.70;1.30;;;;;;;18.46;nan;101101.56;5038578;28;20178;-66
2021/10/04 09:30:16;;;;;;;4.80;1.30;;;;;;;18.54;nan;101105.34;5055567;28;20210;-67
2021/10/04 09:32:47;;;;;;;1.73;1.20;;;;;;;18.82;nan;101103.97;5055385;28;20623;-66
2021/10/04 09:35:31;;;;;;;2.97;1.80;;;;;;;19.02;nan;101097.78;5073343;28;20169;-67
2021/10/04 09:37:59;;;;;;;5.57;1.30;;;;;;;18.18;nan;101079.47;5056374;28;20179;-66
2021/10/04 09:40:27;;;;;;;3.00;1.80;;;;;;;18.85;nan;101098.31;5077368;28;20167;-67
2021/10/04 09:42:53;;;;;;;2.60;1.20;;;;;;;18.71;nan;101088.66;5077326;28;20195;-67
2021/10/04 09:45:18;;;;;;;2.60;1.03;;;;;;;18.56;nan;101072.78;5077546;28;20203;-66
2021/10/04 09:47:43;;;;;;;2.63;1.20;;;;;;;18.62;nan;101075.03;5077249;28;20201;-67
2021/10/04 09:50:14;;;;;;;6.40;1.63;;;;;;;18.91;nan;101083.41;5077274;28;20198;-65
2021/10/04 09:52:46;;;;;;;5.50;1.30;;;;;;;18.90;nan;101092.50;5076941;28;20692;-67
2021/10/04 09:55:32;;;;;;;2.37;1.20;;;;;;;18.99;nan;101087.22;5059549;28;20155;-66
2021/10/04 09:58:10;;;;;;;4.97;1.33;;;;;;;18.62;nan;101086.72;5077276;28;20162;-66
2021/10/04 10:00:56;;;;;;;2.27;0.90;;;;;;;18.44;nan;101077.38;5059971;28;20147;-67
2021/10/04 10:03:23;;;;;;;3.77;1.73;;;;;;;18.73;nan;101075.00;5059525;28;20517;-66
2021/10/04 10:05:53;;;;;;;4.27;1.03;;;;;;;18.59;nan;101077.97;5077180;28;20199;-66
2021/10/04 10:08:21;;;;;;;3.33;1.00;;;;;;;18.77;nan;101081.00;5059098;28;20182;-67
2021/10/04 10:10:46;;;;;;;3.93;0.90;;;;;;;18.79;nan;101079.03;5058177;28;20198;-66
2021/10/04 10:13:15;;;;;;;4.17;1.20;;;;;;;18.93;nan;101093.09;5058717;28;20171;-66
2021/10/04 10:15:42;;;;;;;3.67;1.00;;;;;;;18.64;nan;101092.84;5076450;28;20191;-66
2021/10/04 10:18:21;;;;;;;3.00;0.93;;;;;;;18.66;nan;101111.66;5058782;28;20181;-67
2021/10/04 10:20:53;;;;;;;6.23;1.37;;;;;;;18.82;nan;101125.59;5058341;28;20193;-66
2021/10/04 10:23:45;;;;;;;2.13;1.30;;;;;;;18.61;nan;101109.28;5058189;28;20171;-66
2021/10/04 10:26:36;;;;;;;1.43;1.00;;;;;;;18.59;nan;101105.00;5077099;28;20548;-67
2021/10/04 10:29:22;;;;;;;4.00;1.17;;;;;;;18.55;nan;101117.88;5058140;28;20342;-67
2021/10/04 10:31:56;;;;;;;1.87;1.03;;;;;;;18.33;nan;101112.53;5076257;28;20202;-66
2021/10/04 10:34:30;;;;;;;3.73;1.20;;;;;;;18.41;nan;101118.16;5077184;28;20175;-68
2021/10/04 10:37:04;;;;;;;4.20;1.10;;;;;;;18.70;nan;101118.53;5076904;28;20197;-67
2021/10/04 10:39:42;;;;;;;2.40;0.90;;;;;;;18.47;nan;101108.69;5058505;28;20648;-67
2021/10/04 10:42:12;;;;;;;4.83;1.10;;;;;;;17.91;nan;101098.78;5075994;28;20222;-67
2021/10/04 10:44:55;;;;;;;2.37;1.30;;;;;;;18.28;nan;101109.34;5076001;28;20170;-67
2021/10/04 10:47:33;;;;;;;6.20;1.43;;;;;;;18.38;nan;101119.28;5075947;28;20217;-67
2021/10/04 10:49:58;;;;;;;4.53;1.13;;;;;;;18.05;nan;101122.84;5075370;28;20221;-66
2021/10/04 10:52:27;;;;;;;3.60;1.43;;;;;;;17.89;nan;101132.28;5075894;28;20677;-66
2021/10/04 10:54:53;;;;;;;4.60;1.27;;;;;;;17.95;nan;101134.50;5058710;28;20505;-66
2021/10/04 10:57:23;;;;;;;3.33;1.20;;;;;;;17.95;nan;101145.28;5057760;28;20181;-66
2021/10/04 11:00:19;;;;;;;2.97;1.50;;;;;;;18.23;nan;101150.25;5076559;28;20217;-66
2021/10/04 11:02:54;;;;;;;4.17;1.40;;;;;;;18.08;nan;101135.22;5075636;28;20700;-67
2021/10/04 11:05:38;;;;;;;2.63;1.40;;;;;;;18.60;nan;101133.75;5075574;28;20255;-67
2021/10/04 11:08:04;;;;;;;3.50;1.17;;;;;;;18.33;nan;101142.25;5076919;28;20218;-67
2021/10/04 11:10:29;;;;;;;5.10;2.30;;;;;;;17.59;nan;101122.88;5077388;28;20731;-68
2021/10/04 11:13:06;;;;;;;2.60;1.30;;;;;;;17.76;nan;101127.81;5077939;28;20202;-66
2021/10/04 11:15:32;;;;;;;4.40;1.67;;;;;;;18.38;nan;101131.91;5077654;28;20175;-67
2021/10/04 11:17:57;;;;;;;2.97;1.30;;;;;;;18.62;nan;101138.09;5080685;28;20197;-67
2021/10/04 11:20:23;;;;;;;3.77;1.50;;;;;;;18.55;nan;101152.16;5059248;28;20179;-67
2021/10/04 11:22:48;;;;;;;2.13;1.20;;;;;;;18.49;nan;101142.72;5058149;28;20191;-67
2021/10/04 11:25:13;;;;;;;4.93;1.50;;;;;;;18.23;nan;101128.63;5057420;28;20175;-67
2021/10/04 11:27:49;;;;;;;3.03;1.40;;;;;;;18.38;nan;101127.38;5077746;28;20197;-68
2021/10/04 11:30:14;;;;;;;4.07;1.43;;;;;;;18.44;nan;101143.09;5058356;28;20201;-67
2021/10/04 11:32:40;;;;;;;5.87;1.50;;;;;;;18.11;nan;101133.16;5058327;28;20202;-67
2021/10/04 11:35:13;;;;;;;2.37;1.30;;;;;;;18.32;nan;101130.56;5075517;28;20204;-68
2021/10/04 11:37:38;;;;;;;3.10;1.10;;;;;;;17.92;nan;101122.09;5075453;28;20179;-67
2021/10/04 11:40:07;;;;;;;3.53;1.43;;;;;;;18.35;nan;101126.78;5076076;28;20229;-67